Idaville, Indiana
Current Conditions -  °F | °C
As of 10:35 PM on Saturday 24 Jan 2015 (Local Time) from KMCX Reporting Station
Clear Clear  
Wind Chill: 26°   Ceiling: Unl
Heat Index: 32°   Visibility: 7mi
Dew Point: 32°   Wind: 7mph
Humidity: 99%   Direction: 210°SSW
Pressure: 29.7"   Gusts: NA
Location:  40.76°N, 86.65°W
Report Text: KMCX 250335Z AUTO 21006KT 7SM CLR 00/00 A2970 RMK AO2 T00020000
Loading
Personal Weather Stations






























Interactive Weather Map New forecast layout! Learn more

10-Day Weather Forecast

Advertisements
Track Severe Weather on mobile